Atkinson, Illinois
Current Conditions -  °F | °C
As of 3:38 AM on Friday 24 Oct 2014 (Local Time) from KMLI Reporting Station
Haze Haze  
Wind Chill:   Ceiling: 1400
Heat Index:   Visibility: 1.7mi
Dew Point:   Wind: 0mph
Humidity: 97%   Direction: NA
Pressure: 30.06"   Gusts: NA
Location:  41.42°N, 90.02°W
Report Text: KMLI 240838Z AUTO 00000KT 1 3/4SM R09/1600VP6000FT BR SCT006 OVC014 06/06 A3006 RMK AO2 T00610056
Loading
Personal Weather Stations






























Interactive Weather Map
Tropical Storm Tracking
New forecast layout! Learn more

10-Day Weather Forecast

Advertisements
Track Severe Weather on mobile